Hovedside
METAR-TAF:

METAR-TAF

Lufthavner :

Koné, Ny-Caledonia

breddegrad: 21-03-12S, lengdegrad: 164-50-18E, høyde over havet: 7 m

METAR: fraværende

Tid: 12:55 (01:55 UTC)

Varsel

Denne rapporten ble laget for 2 timer og 55 minutter siden, klokken 23:00 UTC
Varsel gyldig fra 20. klokken 00 UTC til 20. klokken 24 UTC
Vind 3 kt fra skiftende retning
Sikt 10 km eller mer
Få skyer i en høyde av 5000 ft
Blir
fra 20. klokken 00 UTC til 20. klokken 03 UTC
Vind 12 kt fra Sør-sørvest
Blir
fra 20. klokken 06 UTC til 20. klokken 08 UTC
Vind 2 kt fra skiftende retning
Sannsynlighet 30% :
Midlertidig
fra 20. klokken 15 UTC til 20. klokken 20 UTC
Sikt: 4000 m
dis
Blir
fra 20. klokken 22 UTC til 20. klokken 24 UTC
Vind 12 kt fra Sør-sørvest

TAF: NWWD 192300Z 2000/2024 VRB03KT 9999 FEW050 BECMG 2000/2003 20012KT BECMG 2006/2008 VRB02KT PROB30 TEMPO 2015/2020 4000 BR BECMG 2022/2024 20012KT

Værobservasjoner og værvarsel for over 4000 flyplasser (METAR- og TAF-rapporter).

Tilgjengelige stasjoner er representert av de røde og gule prikkene på kartet.

Hold musepekeren over prikken for å se navnet på stasjonen.

Klikk så for å se værobservasjoner og -varsler.

For å forandre kartet kan du klikke på den grønne knappen med svart kryss for å zoome inn, på den grønne knappen med strek for å zoome ut, eller på de grønne pilene for å se tilstøtende kart.


METAR-TAF: